Flight Track Log - Related Links

Times and Time Zones

All times are in EDT time to prevent confusion due to time zone crossing. See the SWA1259 flight status page for this flight to view local times or setup timezone preferences in your user account.

Time Position Orientation Groundspeed Altitude Reporting Facility
EDT Latitude Longitude Course Direction KTS MPH feet Rate Location/Type
Sat 06:23:14 PM 30.0172 -90.3050 317° Northwest 180 207 1,700  Level Houston Center
Sat 06:24:19 PM 30.0617 -90.3436 323° Northwest 212 244 3,500 1,701 Climbing Houston Center
Sat 06:25:21 PM 30.1031 -90.4036 309° West 227 261 5,300 2,488 Climbing Houston Center
Sat 06:26:22 PM 30.1531 -90.4742 309° West 263 303 8,600 2,976 Climbing Houston Center
Sat 06:27:24 PM 30.2208 -90.5633 311° West 295 339 11,400 2,780 Climbing Houston Center
Sat 06:28:25 PM 30.2867 -90.6514 311° West 348 400 14,300 2,829 Climbing Houston Center
Sat 06:29:27 PM 30.3564 -90.7403 312° West 365 420 17,200 2,488 Climbing Houston Center
Sat 06:30:28 PM 30.4289 -90.8308 313° West 376 433 19,400 2,177 Climbing Houston Center
Sat 06:31:31 PM 30.5017 -90.9264 311° West 390 449 21,700 2,195 Climbing Houston Center
Sat 06:32:31 PM 30.5747 -91.0264 310° West 403 464 23,900 2,016 Climbing Houston Center
Sat 06:33:33 PM 30.6489 -91.1314 309° West 418 481 25,800 1,707 Climbing Houston Center
Sat 06:34:34 PM 30.7208 -91.2439 307° West 432 497 27,400 1,707 Climbing Houston Center
Sat 06:35:36 PM 30.8036 -91.3847 304° West 446 513 29,300 1,561 Climbing Houston Center
Sat 06:36:37 PM 30.8767 -91.5044 305° West 452 520 30,600 1,463 Climbing Houston Center
Sat 06:37:39 PM 30.9508 -91.6275 305° West 461 531 32,300 1,561 Climbing Houston Center
Sat 06:38:40 PM 31.0236 -91.7503 305° West 460 529 33,800 1,512 Climbing Houston Center
Sat 06:39:42 PM 31.1158 -91.8500 317° Northwest 458 527 35,400 1,512 Climbing Houston Center
Sat 06:40:43 PM 31.2150 -91.9428 321° Northwest 455 524 36,900 1,268 Climbing Houston Center
Sat 06:41:45 PM 31.3169 -92.0403 321° Northwest 449 517 38,000 537 Climbing Houston Center
Sat 06:42:46 PM 31.3931 -92.1558 308° West 455 524 38,000  Level Houston Center
Sat 06:43:48 PM 31.4625 -92.2817 303° West 461 531 38,000  Level Houston Center
Sat 06:44:49 PM 31.5319 -92.4061 303° West 459 528 38,000  Level Houston Center
Sat 06:45:51 PM 31.6150 -92.5536 304° West 454 522 38,000  Level Houston Center
Sat 06:46:52 PM 31.6797 -92.6761 302° West 447 514 38,000  Level Houston Center
Sat 06:47:54 PM 31.7478 -92.7997 303° West 448 516 38,000  Level Houston Center
Sat 06:48:55 PM 31.8153 -92.9231 303° West 451 519 38,000  Level Houston Center
Sat 06:49:57 PM 31.8894 -93.0603 303° West 457 526 38,000  Level Houston Center
Sat 06:50:59 PM 31.9572 -93.1858 302° West 458 527 38,000  Level Houston Center
Sat 06:52:00 PM 32.0247 -93.3111 302° West 456 525 38,000  Level Houston Center
Sat 06:53:02 PM 32.0931 -93.4361 303° West 455 524 38,000  Level Houston Center
Sat 06:53:58 PM 32.1675 -93.5728 303° West 455 524 38,000  Level Fort Worth Center
Sat 06:54:58 PM 32.2228 -93.6783 302° West 441 507 38,000  Level Fort Worth Center
Sat 06:55:58 PM 32.2869 -93.8036 301° West 441 507 38,000  Level Fort Worth Center
Sat 06:56:58 PM 32.3531 -93.9311 302° West 446 513 38,000  Level Fort Worth Center
Sat 06:57:58 PM 32.4192 -94.0567 302° West 446 513 38,000  Level Fort Worth Center
Sat 06:58:58 PM 32.4850 -94.1797 302° West 441 507 38,000  Level Fort Worth Center
Sat 06:59:58 PM 32.5486 -94.3031 301° West 441 507 38,000  Level Fort Worth Center
Sat 07:00:58 PM 32.6164 -94.4317 302° West 441 507 38,000  Level Fort Worth Center
Sat 07:01:58 PM 32.6800 -94.5553 301° West 441 507 38,000  Level Fort Worth Center
Sat 07:02:58 PM 32.7453 -94.6842 301° West 441 507 38,000  Level Fort Worth Center
Sat 07:03:58 PM 32.8128 -94.8081 303° West 441 507 38,000  Level Fort Worth Center
Sat 07:04:58 PM 32.8781 -94.9372 301° West 441 507 38,000  Level Fort Worth Center
Sat 07:05:58 PM 32.9408 -95.0644 300° West 446 513 38,000  Level Fort Worth Center
Sat 07:06:58 PM 33.0081 -95.1939 302° West 446 513 38,000  Level Fort Worth Center
Sat 07:07:58 PM 33.0747 -95.3211 302° West 446 513 38,000  Level Fort Worth Center
Sat 07:08:58 PM 33.1394 -95.4486 301° West 446 513 38,000  Level Fort Worth Center
Sat 07:09:58 PM 33.2042 -95.5764 301° West 446 513 38,000  Level Fort Worth Center
Sat 07:10:58 PM 33.2664 -95.6967 302° West 441 507 38,000  Level Fort Worth Center
Sat 07:11:58 PM 33.3328 -95.8247 302° West 441 507 38,000  Level Fort Worth Center
Sat 07:12:58 PM 33.3947 -95.9481 301° West 441 507 38,000  Level Fort Worth Center
Sat 07:13:58 PM 33.4608 -96.0764 302° West 441 507 38,000  Level Fort Worth Center
Sat 07:14:58 PM 33.5228 -96.2025 301° West 441 507 38,000  Level Fort Worth Center
Sat 07:15:58 PM 33.5594 -96.3417 288° West 435 501 38,000  Level Fort Worth Center
Sat 07:16:58 PM 33.5897 -96.4858 284° West 435 501 38,000  Level Fort Worth Center
Sat 07:17:58 PM 33.6178 -96.6278 283° West 440 506 38,000  Level Fort Worth Center
Sat 07:18:58 PM 33.6458 -96.7722 283° West 445 512 38,000  Level Fort Worth Center
Sat 07:19:58 PM 33.6756 -96.9192 284° West 451 519 38,000  Level Fort Worth Center
Sat 07:20:58 PM 33.7033 -97.0639 283° West 451 519 38,000 50 Level Fort Worth Center
Sat 07:21:58 PM 33.7328 -97.2086 284° West 451 519 38,100 500 Climbing Fort Worth Center
Sat 07:22:58 PM 33.7581 -97.3561 282° West 451 519 39,000 950 Climbing Fort Worth Center
Sat 07:23:58 PM 33.7894 -97.5008 285° West 451 519 40,000 500 Climbing Fort Worth Center
Sat 07:24:58 PM 33.8164 -97.6486 282° West 451 519 40,000  Level Fort Worth Center
Sat 07:25:58 PM 33.8431 -97.7986 282° West 451 519 40,000  Level Fort Worth Center
Sat 07:26:58 PM 33.8697 -97.9414 283° West 451 519 40,000  Level Fort Worth Center
Sat 07:27:58 PM 33.8961 -98.0842 283° West 446 513 40,000  Level Fort Worth Center
Sat 07:28:58 PM 33.9203 -98.2294 281° West 446 513 40,000  Level Fort Worth Center
Sat 07:29:58 PM 33.9483 -98.3725 283° West 446 513 40,000  Level Fort Worth Center
Sat 07:30:58 PM 33.9744 -98.5181 282° West 451 519 40,000  Level Fort Worth Center
Sat 07:31:58 PM 33.9981 -98.6611 281° West 446 513 40,000  Level Fort Worth Center
Sat 07:32:58 PM 34.0192 -98.8217 279° West 446 513 40,000  Level Fort Worth Center
Sat 07:33:58 PM 34.0383 -98.9650 279° West 446 513 40,000  Level Fort Worth Center
Sat 07:34:58 PM 34.0575 -99.1133 279° West 446 513 40,000  Level Fort Worth Center
Sat 07:35:58 PM 34.0803 -99.2617 281° West 446 513 40,000  Level Fort Worth Center
Sat 07:36:58 PM 34.0989 -99.4100 279° West 446 513 40,000  Level Fort Worth Center
Sat 07:37:58 PM 34.1175 -99.5533 279° West 446 513 40,000  Level Fort Worth Center
Sat 07:38:58 PM 34.1356 -99.7019 278° West 446 513 40,000  Level Fort Worth Center
Sat 07:39:58 PM 34.1536 -99.8506 278° West 446 513 40,000  Level Fort Worth Center
Sat 07:40:58 PM 34.1736 -99.9992 279° West 446 513 40,000  Level Fort Worth Center
Sat 07:41:58 PM 34.1914 -100.1478 278° West 446 513 40,000  Level Fort Worth Center
Sat 07:42:58 PM 34.2111 -100.2964 279° West 446 513 40,000  Level Fort Worth Center
Sat 07:43:58 PM 34.2267 -100.4253 278° West 446 513 40,000  Level Fort Worth Center
Sat 07:44:58 PM 34.2439 -100.5714 278° West 446 513 40,000  Level Fort Worth Center
Sat 07:45:58 PM 34.2611 -100.7203 278° West 446 513 40,000  Level Fort Worth Center
Sat 07:46:58 PM 34.2781 -100.8667 278° West 446 513 40,000  Level Fort Worth Center
Sat 07:47:58 PM 34.2925 -101.0131 277° West 446 513 40,000  Level Fort Worth Center
Sat 07:48:58 PM 34.3111 -101.1597 279° West 446 513 40,000  Level Fort Worth Center
Sat 07:49:58 PM 34.3278 -101.3039 278° West 446 513 40,000  Level Fort Worth Center
Sat 07:50:58 PM 34.3475 -101.4656 278° West 451 519 40,000  Level Fort Worth Center
Sat 07:51:58 PM 34.3639 -101.6022 278° West 451 519 40,000  Level Fort Worth Center
Sat 07:53:03 PM 34.3808 -101.7708 277° West 444 511 40,000  Level Albuquerque Center
Sat 07:54:05 PM 34.3983 -101.9197 278° West 445 512 40,000  Level Albuquerque Center
Sat 07:55:06 PM 34.4147 -102.0675 278° West 444 511 40,000  Level Albuquerque Center
Sat 07:56:08 PM 34.4294 -102.2161 277° West 444 511 40,000  Level Albuquerque Center
Sat 07:57:09 PM 34.4467 -102.3650 278° West 445 512 40,000  Level Albuquerque Center
Sat 07:58:11 PM 34.4622 -102.5128 277° West 443 510 40,000  Level Albuquerque Center
Sat 07:59:13 PM 34.4767 -102.6608 277° West 443 510 40,000  Level Albuquerque Center
Sat 08:00:14 PM 34.4931 -102.8219 277° West 440 506 40,000  Level Albuquerque Center
Sat 08:01:16 PM 34.5147 -102.9708 280° West 442 509 40,000  Level Albuquerque Center
Sat 08:02:18 PM 34.5372 -103.1197 280° West 445 512 40,000  Level Albuquerque Center
Sat 08:03:18 PM 34.5606 -103.2683 281° West 445 512 40,000  Level Albuquerque Center
Sat 08:04:20 PM 34.5831 -103.4189 280° West 448 516 40,000  Level Albuquerque Center
Sat 08:05:21 PM 34.6061 -103.5681 281° West 446 513 40,000  Level Albuquerque Center
Sat 08:06:23 PM 34.6314 -103.7433 280° West 446 513 40,000  Level Albuquerque Center
Sat 08:07:24 PM 34.6531 -103.8947 280° West 449 517 40,000  Level Albuquerque Center
Sat 08:08:26 PM 34.6761 -104.0475 280° West 452 520 40,000  Level Albuquerque Center
Sat 08:09:27 PM 34.6972 -104.1986 280° West 449 517 40,000  Level Albuquerque Center
Sat 08:10:29 PM 34.7197 -104.3511 280° West 451 519 40,000  Level Albuquerque Center
Sat 08:11:30 PM 34.7411 -104.5053 280° West 454 522 40,000  Level Albuquerque Center
Sat 08:12:32 PM 34.7617 -104.6561 279° West 448 516 40,000  Level Albuquerque Center
Sat 08:13:33 PM 34.7833 -104.8083 280° West 450 518 40,000  Level Albuquerque Center
Sat 08:14:35 PM 34.7964 -104.9589 276° West 445 512 40,000  Level Albuquerque Center
Sat 08:15:37 PM 34.8044 -105.1081 274° West 440 506 40,000  Level Albuquerque Center
Sat 08:16:38 PM 34.8131 -105.2600 274° West 443 510 40,000  Level Albuquerque Center
Sat 08:17:40 PM 34.8228 -105.4108 275° West 443 510 40,000  Level Albuquerque Center
Sat 08:18:41 PM 34.8339 -105.5608 275° West 442 509 40,000  Level Albuquerque Center
Sat 08:19:43 PM 34.8478 -105.7328 276° West 443 510 40,000  Level Albuquerque Center
Sat 08:20:44 PM 34.8578 -105.8842 275° West 445 512 40,000  Level Albuquerque Center
Sat 08:21:46 PM 34.8733 -106.0342 277° West 445 512 40,000  Level Albuquerque Center
Sat 08:22:47 PM 34.8939 -106.1817 280° West 442 509 40,000  Level Albuquerque Center
Sat 08:23:49 PM 34.9128 -106.3297 279° West 441 507 40,000  Level Albuquerque Center
Sat 08:24:50 PM 34.9317 -106.4786 279° West 442 509 40,000  Level Albuquerque Center
Sat 08:25:52 PM 34.9517 -106.6308 279° West 450 518 40,000  Level Albuquerque Center
Sat 08:26:54 PM 34.9703 -106.7803 279° West 447 514 40,000  Level Albuquerque Center
Sat 08:27:55 PM 34.9925 -106.9556 279° West 450 518 40,000  Level Albuquerque Center
Sat 08:28:57 PM 35.0111 -107.1047 279° West 447 514 40,000  Level Albuquerque Center
Sat 08:29:58 PM 35.0233 -107.2522 276° West 440 506 40,000  Level Albuquerque Center
Sat 08:30:59 PM 35.0206 -107.4117 269° West 438 504 40,000  Level Albuquerque Center
Sat 08:32:01 PM 35.0217 -107.5558 271° West 444 511 40,000  Level Albuquerque Center
Sat 08:33:02 PM 35.0228 -107.7047 271° West 444 511 40,000  Level Albuquerque Center
Sat 08:34:04 PM 35.0233 -107.8528 270° West 440 506 40,000  Level Albuquerque Center
Sat 08:35:05 PM 35.0186 -108.0019 268° West 439 505 40,000  Level Albuquerque Center
Sat 08:36:07 PM 35.0156 -108.1686 269° West 438 504 40,000  Level Albuquerque Center
Sat 08:37:08 PM 35.0117 -108.3103 268° West 436 502 40,000  Level Albuquerque Center
Sat 08:38:10 PM 35.0075 -108.4750 268° West 436 502 40,000  Level Albuquerque Center
Sat 08:39:11 PM 35.0208 -108.6139 277° West 430 495 40,000  Level Albuquerque Center
Sat 08:40:12 PM 35.0408 -108.7594 280° West 442 509 40,000  Level Albuquerque Center
Sat 08:41:14 PM 35.0653 -108.9222 280° West 439 505 40,000  Level Albuquerque Center
Sat 08:42:15 PM 35.0844 -109.0619 280° West 435 501 40,000  Level Albuquerque Center
Sat 08:43:17 PM 35.1047 -109.2064 280° West 442 509 40,000  Level Albuquerque Center
Sat 08:44:18 PM 35.1278 -109.3744 280° West 447 514 40,000  Level Albuquerque Center
Sat 08:45:19 PM 35.1469 -109.5169 279° West 445 512 40,000  Level Albuquerque Center
Sat 08:46:21 PM 35.1708 -109.6819 280° West 442 509 40,000  Level Albuquerque Center
Sat 08:47:22 PM 35.1894 -109.8258 279° West 445 512 40,000  Level Albuquerque Center
Sat 08:48:24 PM 35.2075 -109.9672 279° West 442 509 40,000  Level Albuquerque Center
Sat 08:49:25 PM 35.2278 -110.1286 279° West 436 502 40,000  Level Albuquerque Center
Sat 08:50:26 PM 35.2450 -110.2683 279° West 434 499 40,000  Level Albuquerque Center
Sat 08:51:28 PM 35.2650 -110.4328 279° West 436 502 40,000  Level Albuquerque Center
Sat 08:52:29 PM 35.2814 -110.5731 278° West 436 502 40,000 -146 Level Albuquerque Center
Sat 08:53:31 PM 35.3006 -110.7139 280° West 437 503 39,700 -683 Descending Albuquerque Center
Sat 08:54:32 PM 35.3214 -110.8781 279° West 437 503 38,600 -984 Descending Albuquerque Center
Sat 08:55:33 PM 35.3394 -111.0189 279° West 438 504 37,700 -976 Descending Albuquerque Center
Sat 08:56:35 PM 35.3581 -111.1822 278° West 435 501 36,600 -976 Descending Albuquerque Center
Sat 08:57:36 PM 35.3761 -111.3242 279° West 438 504 35,700 -934 Descending Albuquerque Center
Sat 08:58:37 PM 35.3969 -111.4828 279° West 451 519 34,700 -1,268 Descending Albuquerque Center
Sat 08:59:39 PM 35.4147 -111.6342 278° West 454 522 33,100 -2,032 Descending Albuquerque Center
Sat 09:00:41 PM 35.4317 -111.7836 278° West 449 517 30,500 -1,512 Descending Albuquerque Center
Sat 09:01:42 PM 35.4481 -111.9286 278° West 439 505 30,000 -246 Descending Albuquerque Center
Sat 09:02:43 PM 35.4650 -112.0725 278° West 433 498 30,000  Level Albuquerque Center
Sat 09:03:45 PM 35.4814 -112.2169 278° West 432 497 30,000  Level Albuquerque Center
Sat 09:04:46 PM 35.5014 -112.3911 278° West 434 499 30,000  Level Albuquerque Center
Sat 09:05:48 PM 35.5178 -112.5358 278° West 433 498 30,000  Level Albuquerque Center
Sat 09:06:49 PM 35.5344 -112.6789 278° West 430 495 30,000  Level Albuquerque Center
Sat 09:07:50 PM 35.5506 -112.8233 278° West 432 497 30,000  Level Albuquerque Center
Sat 09:08:52 PM 35.5658 -112.9669 277° West 435 501 30,000  Level Albuquerque Center
Sat 09:09:53 PM 35.5831 -113.1375 277° West 430 495 30,000 -98 Level Albuquerque Center
Sat 09:10:55 PM 35.5969 -113.2797 277° West 428 493 29,800 -1,369 Descending Albuquerque Center
Sat 09:12:22 PM 35.6181 -113.4814 277° West 426 490 26,600 -2,230 Descending Los Angeles Center
Sat 09:13:23 PM 35.6342 -113.6181 278° West 412 474 24,300 -2,262 Descending Los Angeles Center
Sat 09:14:24 PM 35.6536 -113.7522 280° West 403 464 22,000 -2,439 Descending Los Angeles Center
Sat 09:15:26 PM 35.6756 -113.9083 280° West 392 451 19,300 -2,390 Descending Los Angeles Center
Sat 09:16:27 PM 35.6928 -114.0322 280° West 378 435 17,100 -1,982 Descending Los Angeles Center
Sat 09:17:15 PM 35.7047 -114.1208 279° West 375 432 15,700 -2,154 Descending Los Angeles Center
Sat 09:17:45 PM 35.7175 -114.1961 282° West 368 423 14,300 -2,320 Descending Los Angeles Center
Sat 09:18:30 PM 35.7275 -114.2850 278° West 353 406 12,800 -1,302 Descending Los Angeles Center
Sat 09:19:31 PM 35.7561 -114.3906 288° West 333 383 12,000 -927 Descending Los Angeles Center
Sat 09:20:33 PM 35.8303 -114.4469 328° Northwest 318 366 10,900 -976 Descending Los Angeles Center
Sat 09:21:34 PM 35.8919 -114.5206 316° Northwest 311 358 10,000 -984 Descending Los Angeles Center
Sat 09:22:35 PM 35.9525 -114.5897 317° Northwest 299 344 8,900 -976 Descending Los Angeles Center
Sat 09:23:37 PM 36.0125 -114.6592 317° Northwest 295 339 8,000 -537 Descending Los Angeles Center
Sat 09:24:38 PM 36.0661 -114.7219 317° Northwest 273 314 7,800 -492 Descending Los Angeles Center
Sat 09:25:39 PM 36.0708 -114.8025 274° West 251 289 7,000 -585 Descending Los Angeles Center
Sat 09:26:41 PM 36.0725 -114.8731 272° West 228 262 6,600 -927 Descending Los Angeles Center
Sat 09:27:42 PM 36.0722 -114.9367 270° West 205 236 5,100 -1,415 Descending Los Angeles Center
Sat 09:28:44 PM 36.0728 -115.0144 271° West 194 223 3,700 -1,073 Descending Los Angeles Center
Sat 09:29:45 PM 36.0725 -115.0708 270° West 181 208 2,900 -738 Descending Los Angeles Center
Sat 09:30:46 PM 36.0722 -115.1169 270° West 154 177 2,200 -689 Descending Los Angeles Center
Sat 09:32:00 PM 36.0667 -115.1500 270° West  Level FlightAware Approximate
Sat 09:39:00 PM 36.0801 -115.1523 270° West  Level Estimated

Login

Don't have an account? Register now (free) for customized features, flight alerts, and more!